UPR Marlboro, Maryland
Current Conditions -  °F | °C
As of 4:58 PM on Tuesday 21 Oct 2014 (Local Time) from KADW Reporting Station
Scattered Clouds Scattered Clouds  
Wind Chill: 64°   Ceiling: Unl
Heat Index: 64°   Visibility: 10mi
Dew Point: 51°   Wind: 2mph
Humidity: 64%   Direction: 80°E
Pressure: 29.81"   Gusts: NA
Location:  38.8741°N, 76.7678°W
Report Text: KADW 212058Z AUTO 08002KT 10SM SCT060 SCT120 18/11 A2981 RMK AO2 SLP101 T01780108 55003 $
Loading
Personal Weather Stations






























Interactive Weather Map
Tropical Storm Tracking
New forecast layout! Learn more

10-Day Weather Forecast

Advertisements
Track Severe Weather on mobile